createdAt,value
2023-01-11T00:02:00.146Z,193.68
2023-01-11T00:04:30.653Z,176.30
2023-01-11T00:06:58.197Z,175.98
2023-01-11T00:09:25.101Z,175.27
2023-01-11T00:11:51.968Z,169.40
2023-01-11T00:14:19.025Z,168.10
2023-01-11T00:16:45.882Z,175.30
2023-01-11T00:19:13.176Z,166.80
2023-01-11T00:21:40.093Z,159.85
2023-01-11T00:24:07.063Z,170.50
2023-01-11T00:26:33.904Z,166.25
2023-01-11T00:29:00.746Z,168.15
2023-01-11T00:31:27.676Z,171.10
2023-01-11T00:33:55.310Z,169.77
2023-01-11T00:36:22.162Z,168.65
2023-01-11T00:38:53.973Z,167.18
2023-01-11T00:41:40.973Z,165.88
2023-01-11T00:44:29.327Z,161.40
2023-01-11T00:47:14.719Z,168.90
2023-01-11T00:49:41.880Z,174.70
2023-01-11T00:52:09.985Z,163.98
2023-01-11T00:54:41.743Z,168.43
2023-01-11T00:57:09.378Z,175.40
2023-01-11T00:59:37.693Z,179.05
2023-01-11T01:02:04.575Z,174.00
2023-01-11T01:04:31.804Z,168.07
2023-01-11T01:06:59.050Z,177.40
2023-01-11T01:09:26.182Z,159.68
2023-01-11T01:11:53.215Z,164.80
2023-01-11T01:14:26.346Z,169.52
2023-01-11T01:16:58.088Z,159.73
2023-01-11T01:19:27.915Z,156.52
2023-01-11T01:21:56.529Z,161.43
2023-01-11T01:24:24.420Z,169.95
2023-01-11T01:26:51.960Z,178.73
2023-01-11T01:29:18.920Z,171.95
2023-01-11T01:31:45.799Z,179.77
2023-01-11T01:34:13.818Z,171.48
2023-01-11T01:36:40.801Z,165.40
2023-01-11T01:39:08.552Z,181.88
2023-01-11T01:41:35.831Z,174.02
2023-01-11T01:44:06.413Z,172.32
2023-01-11T01:46:34.406Z,167.57
2023-01-11T01:49:12.144Z,176.85
2023-01-11T01:51:52.627Z,172.55
2023-01-11T01:54:26.762Z,177.13
2023-01-11T01:57:02.543Z,178.40
2023-01-11T01:59:33.506Z,177.30
2023-01-11T02:02:01.275Z,171.77
2023-01-11T02:04:28.078Z,165.27
2023-01-11T02:07:09.529Z,175.30
2023-01-11T02:09:49.291Z,177.60
2023-01-11T02:12:16.650Z,169.93
2023-01-11T02:14:45.245Z,174.40
2023-01-11T02:17:12.701Z,180.35
2023-01-11T02:19:57.765Z,174.52
2023-01-11T02:23:06.493Z,171.50
2023-01-11T02:26:01.318Z,185.10
2023-01-11T02:29:03.725Z,182.82
2023-01-11T02:31:48.509Z,178.02
2023-01-11T02:34:24.050Z,173.00
2023-01-11T02:37:08.228Z,175.90
2023-01-11T02:40:07.803Z,186.93
2023-01-11T02:42:57.168Z,200.68
2023-01-11T02:45:47.643Z,197.93
2023-01-11T02:48:24.145Z,186.88
2023-01-11T02:51:13.110Z,185.45
2023-01-11T02:53:53.949Z,195.10
2023-01-11T02:56:25.985Z,187.65
2023-01-11T02:58:55.956Z,196.10
2023-01-11T03:01:23.658Z,189.95
2023-01-11T03:03:51.971Z,181.52
2023-01-11T03:06:22.725Z,194.27
2023-01-11T03:09:04.824Z,180.50
2023-01-11T03:12:09.547Z,179.38
2023-01-11T03:14:59.564Z,187.32
2023-01-11T03:17:41.551Z,193.55
2023-01-11T03:20:40.896Z,187.05
2023-01-11T03:24:01.851Z,183.80
2023-01-11T03:26:46.403Z,196.48
2023-01-11T03:29:21.379Z,188.32
2023-01-11T03:32:04.797Z,191.43
2023-01-11T03:34:40.685Z,198.20
2023-01-11T03:37:12.966Z,194.27
2023-01-11T03:40:02.989Z,190.30
2023-01-11T03:42:33.349Z,193.27
2023-01-11T03:45:03.141Z,190.00
2023-01-11T03:47:30.821Z,189.02
2023-01-11T03:50:06.959Z,192.63
2023-01-11T03:52:38.674Z,195.57
2023-01-11T03:55:09.804Z,196.38
2023-01-11T03:57:41.135Z,196.50
2023-01-11T04:00:10.132Z,190.30
2023-01-11T04:02:41.203Z,193.93
2023-01-11T04:05:10.876Z,188.52
2023-01-11T04:07:38.249Z,188.18
2023-01-11T04:10:05.975Z,187.27
2023-01-11T04:12:32.792Z,184.55
2023-01-11T04:14:59.699Z,193.40
2023-01-11T04:17:26.558Z,186.23
2023-01-11T04:19:53.351Z,187.35
2023-01-11T04:22:20.173Z,190.65
2023-01-11T04:24:46.976Z,191.43
2023-01-11T04:27:13.830Z,194.20
2023-01-11T04:29:40.625Z,181.85
2023-01-11T04:32:07.404Z,184.07
2023-01-11T04:34:34.251Z,181.85
2023-01-11T04:37:01.038Z,193.50
2023-01-11T04:39:27.874Z,198.93
2023-01-11T04:42:13.389Z,196.20
2023-01-11T04:44:40.187Z,183.68
2023-01-11T04:47:07.005Z,189.00
2023-01-11T04:49:33.845Z,198.13
2023-01-11T04:52:00.716Z,202.75
2023-01-11T04:54:27.706Z,199.55
2023-01-11T04:56:54.487Z,197.07
2023-01-11T04:59:21.309Z,199.65
2023-01-11T05:01:48.095Z,196.00
2023-01-11T05:04:14.982Z,204.80
2023-01-11T05:06:41.902Z,192.68
2023-01-11T05:09:15.200Z,197.73
2023-01-11T05:11:42.029Z,199.75
2023-01-11T05:14:09.272Z,201.27
2023-01-11T05:16:36.421Z,197.32
2023-01-11T05:19:04.778Z,205.50
2023-01-11T05:21:34.910Z,205.18
2023-01-11T05:24:04.295Z,203.10
2023-01-11T05:26:38.471Z,195.27
2023-01-11T05:29:09.441Z,196.93
2023-01-11T05:31:39.856Z,201.65
2023-01-11T05:34:09.134Z,220.90
2023-01-11T05:36:37.954Z,201.98
2023-01-11T05:39:07.818Z,206.65
2023-01-11T05:41:38.708Z,202.38
2023-01-11T05:44:31.874Z,199.23
2023-01-11T05:47:01.259Z,205.18
2023-01-11T05:49:30.594Z,199.77
2023-01-11T05:51:59.706Z,194.13
2023-01-11T05:54:28.747Z,191.40
2023-01-11T05:56:58.697Z,199.85
2023-01-11T05:59:30.398Z,197.45
2023-01-11T06:02:00.785Z,191.02
2023-01-11T06:04:29.365Z,193.35
2023-01-11T06:23:02.271Z,189.27
2023-01-11T06:25:39.891Z,195.43
2023-01-11T06:28:51.260Z,186.13
2023-01-11T06:49:40.045Z,187.38
2023-01-11T06:52:06.857Z,190.00
2023-01-11T06:54:33.741Z,182.80
2023-01-11T06:57:00.588Z,179.70
2023-01-11T06:59:27.431Z,189.07
2023-01-11T07:01:54.330Z,181.88
2023-01-11T07:04:21.788Z,185.18
2023-01-11T07:06:48.640Z,192.40
2023-01-11T07:09:15.551Z,189.38
2023-01-11T07:11:42.492Z,184.80
2023-01-11T07:14:09.840Z,194.15
2023-01-11T07:16:36.651Z,182.40
2023-01-11T07:19:03.508Z,181.85
2023-01-11T07:21:30.440Z,188.23
2023-01-11T07:23:57.490Z,182.80
2023-01-11T07:26:26.616Z,188.05
2023-01-11T07:28:53.467Z,184.02
2023-01-11T07:31:20.294Z,183.50
2023-01-11T07:33:47.199Z,180.60
2023-01-11T07:36:14.124Z,179.63
2023-01-11T07:38:41.034Z,183.38
2023-01-11T07:41:27.808Z,183.88
2023-01-11T07:43:54.669Z,180.18
2023-01-11T07:46:21.614Z,191.02
2023-01-11T07:48:48.480Z,182.18
2023-01-11T07:51:16.898Z,186.20
2023-01-11T07:53:43.770Z,176.65
2023-01-11T07:56:10.774Z,182.43
2023-01-11T07:58:37.629Z,178.35
2023-01-11T08:01:05.231Z,175.20
2023-01-11T08:03:32.227Z,176.95
2023-01-11T08:05:59.107Z,184.90
2023-01-11T08:08:26.058Z,183.18
2023-01-11T08:11:12.864Z,181.68
2023-01-11T08:16:27.552Z,183.02
2023-01-11T08:18:54.438Z,181.90
2023-01-11T08:21:24.072Z,198.50
2023-01-11T08:23:57.735Z,195.70
2023-01-11T08:26:26.741Z,196.25
2023-01-11T08:28:54.767Z,192.07
2023-01-11T08:31:22.520Z,192.10
2023-01-11T08:33:50.282Z,194.25
2023-01-11T08:36:17.728Z,182.40
2023-01-11T08:38:45.514Z,195.65
2023-01-11T08:41:14.301Z,175.80
2023-01-11T08:43:42.454Z,178.10
2023-01-11T08:46:10.711Z,188.85
2023-01-11T08:48:37.796Z,183.23
2023-01-11T08:51:04.782Z,181.13
2023-01-11T08:53:31.727Z,180.50
2023-01-11T08:55:58.706Z,179.73
2023-01-11T08:58:25.740Z,181.73
2023-01-11T09:00:52.699Z,198.52
2023-01-11T09:03:19.533Z,185.73
2023-01-11T09:05:46.373Z,191.23
2023-01-11T09:08:16.453Z,190.60
2023-01-11T09:10:43.343Z,179.73
2023-01-11T09:13:10.219Z,178.77
2023-01-11T09:15:37.129Z,184.00
2023-01-11T09:18:05.347Z,188.02
2023-01-11T09:20:32.284Z,180.88
2023-01-11T09:22:59.334Z,180.05
2023-01-11T09:25:26.214Z,175.57
2023-01-11T09:27:53.114Z,185.40
2023-01-11T09:30:22.787Z,186.63
2023-01-11T09:32:52.026Z,179.70
2023-01-11T09:35:20.207Z,182.20
2023-01-11T09:37:51.775Z,180.35
2023-01-11T09:40:31.060Z,180.50
2023-01-11T09:43:01.562Z,183.98
2023-01-11T09:45:31.760Z,201.45
2023-01-11T09:48:11.695Z,204.73
2023-01-11T09:50:45.755Z,221.18
2023-01-11T09:53:23.640Z,214.27
2023-01-11T09:55:53.029Z,251.65
2023-01-11T09:58:38.665Z,223.18
2023-01-11T10:01:36.328Z,242.90
2023-01-11T10:04:39.137Z,211.60
2023-01-11T10:07:06.627Z,207.30
2023-01-11T10:18:34.082Z,239.75
2023-01-11T10:19:04.288Z,214.05
2023-01-11T10:24:23.867Z,239.35
2023-01-11T10:26:56.932Z,220.95
2023-01-11T10:29:53.829Z,221.93
2023-01-11T10:32:54.377Z,202.55
2023-01-11T10:35:47.131Z,204.60
2023-01-11T10:38:52.235Z,201.15
2023-01-11T10:41:49.160Z,195.52
2023-01-11T10:44:23.737Z,198.18
2023-01-11T10:46:53.978Z,186.93
2023-01-11T10:49:39.300Z,185.88
2023-01-11T10:52:20.214Z,171.48
2023-01-11T10:54:51.096Z,187.52
2023-01-11T10:57:24.160Z,197.35
2023-01-11T11:00:21.030Z,188.50
2023-01-11T11:02:53.901Z,190.82
2023-01-11T11:05:58.795Z,187.45
2023-01-11T11:09:07.996Z,187.10
2023-01-11T11:11:41.142Z,198.60
2023-01-11T11:14:30.847Z,185.85
2023-01-11T11:17:18.436Z,181.82
2023-01-11T11:19:48.198Z,195.35
2023-01-11T11:22:15.142Z,196.52
2023-01-11T11:25:05.565Z,179.15
2023-01-11T11:27:50.513Z,177.75
2023-01-11T11:30:28.541Z,176.88
2023-01-11T11:33:01.029Z,180.93
2023-01-11T11:36:02.292Z,169.90
2023-01-11T11:38:31.621Z,174.23
2023-01-11T11:41:13.361Z,168.57
2023-01-11T11:43:42.885Z,177.15
2023-01-11T11:46:19.370Z,161.63
2023-01-11T11:49:23.799Z,162.13
2023-01-11T11:51:51.883Z,170.20
2023-01-11T11:54:21.129Z,192.07
2023-01-11T11:56:49.064Z,185.93
2023-01-11T11:59:22.453Z,188.88
2023-01-11T12:01:57.667Z,179.73
2023-01-11T12:04:51.012Z,202.40
2023-01-11T12:07:24.421Z,194.93
2023-01-11T12:10:00.245Z,192.93
2023-01-11T12:12:29.552Z,200.30
2023-01-11T12:15:21.925Z,205.73
2023-01-11T12:17:49.576Z,206.82
2023-01-11T12:20:22.450Z,208.07
2023-01-11T12:23:21.647Z,201.50
2023-01-11T12:26:27.006Z,195.68
2023-01-11T12:29:05.882Z,194.68
2023-01-11T12:31:56.451Z,187.20
2023-01-11T12:34:50.600Z,196.75
2023-01-11T12:37:55.826Z,198.68
2023-01-11T12:40:52.555Z,196.45
2023-01-11T12:43:38.862Z,190.90
2023-01-11T12:46:35.031Z,185.60
2023-01-11T12:49:20.424Z,197.07
2023-01-11T12:52:30.605Z,181.40
2023-01-11T12:55:15.314Z,188.70
2023-01-11T12:57:53.788Z,194.82
2023-01-11T13:00:39.407Z,186.30
2023-01-11T13:03:24.469Z,192.27
2023-01-11T13:06:09.292Z,201.48
2023-01-11T13:08:57.581Z,189.70
2023-01-11T13:11:50.116Z,187.70
2023-01-11T13:14:32.123Z,196.50
2023-01-11T13:17:08.541Z,179.50
2023-01-11T13:19:50.467Z,187.30
2023-01-11T13:22:22.411Z,195.82
2023-01-11T13:24:51.034Z,197.95
2023-01-11T13:27:24.474Z,187.35
2023-01-11T13:29:55.294Z,180.70
2023-01-11T13:32:30.348Z,186.50
2023-01-11T13:35:07.798Z,190.98
2023-01-11T13:37:41.387Z,185.40
2023-01-11T13:40:12.357Z,183.18
2023-01-11T13:42:44.499Z,187.13
2023-01-11T13:45:46.968Z,183.93
2023-01-11T13:48:28.697Z,182.90
2023-01-11T13:51:23.159Z,185.98
2023-01-11T13:54:11.953Z,180.30
2023-01-11T13:56:42.837Z,180.65
2023-01-11T13:59:16.539Z,189.73
2023-01-11T14:02:12.123Z,180.90
2023-01-11T14:04:53.170Z,184.48
2023-01-11T14:07:40.169Z,180.85
2023-01-11T14:10:41.500Z,179.77
2023-01-11T14:14:11.261Z,190.27
2023-01-11T14:16:53.255Z,181.00
2023-01-11T14:19:38.688Z,179.50
2023-01-11T14:22:34.449Z,191.30
2023-01-11T14:25:04.281Z,185.60
2023-01-11T14:28:08.707Z,188.50
2023-01-11T14:30:52.263Z,182.88
2023-01-11T14:33:32.357Z,183.02
2023-01-11T14:36:02.114Z,184.00
2023-01-11T14:38:47.905Z,185.13
2023-01-11T14:41:45.675Z,190.50
2023-01-11T14:44:25.512Z,186.25
2023-01-11T14:47:12.009Z,185.38
2023-01-11T14:49:57.916Z,192.98
2023-01-11T14:52:39.569Z,185.73
2023-01-11T14:55:16.907Z,186.10
2023-01-11T14:58:00.748Z,184.68
2023-01-11T15:00:27.545Z,186.20
2023-01-11T15:03:00.582Z,187.38
2023-01-11T15:05:33.300Z,184.90
2023-01-11T15:08:15.535Z,191.73
2023-01-11T15:10:49.876Z,181.20
2023-01-11T15:13:24.691Z,182.50
2023-01-11T15:16:23.083Z,189.10
2023-01-11T15:18:50.063Z,184.45
2023-01-11T15:21:24.131Z,186.52
2023-01-11T15:23:57.935Z,183.95
2023-01-11T15:26:26.828Z,182.10
2023-01-11T15:28:59.558Z,179.77
2023-01-11T15:31:35.541Z,191.90
2023-01-11T15:34:03.687Z,187.52
2023-01-11T15:37:12.890Z,186.45
2023-01-11T15:40:20.225Z,181.77
2023-01-11T15:43:04.168Z,188.07
2023-01-11T15:46:17.638Z,183.65
2023-01-11T15:48:57.371Z,187.52
2023-01-11T15:51:45.920Z,179.88
2023-01-11T15:54:42.595Z,181.27
2023-01-11T15:57:54.767Z,182.40
2023-01-11T16:00:51.169Z,177.13
2023-01-11T16:03:36.059Z,179.57
2023-01-11T16:06:19.837Z,176.50
2023-01-11T16:09:05.891Z,178.63
2023-01-11T16:11:57.537Z,187.90
2023-01-11T16:14:53.675Z,173.70
2023-01-11T16:17:23.362Z,186.85
2023-01-11T16:19:56.638Z,187.65
2023-01-11T16:22:27.674Z,181.95
2023-01-11T16:24:59.998Z,194.88
2023-01-11T16:27:29.589Z,198.63
2023-01-11T16:29:56.966Z,209.30
2023-01-11T16:32:32.966Z,210.93
2023-01-11T16:35:01.895Z,216.80
2023-01-11T16:37:31.564Z,200.93
2023-01-11T16:40:12.200Z,212.82
2023-01-11T16:42:42.802Z,216.23
2023-01-11T16:45:19.109Z,217.77
2023-01-11T16:50:36.631Z,210.10
2023-01-11T16:53:13.211Z,217.80
2023-01-11T16:55:42.854Z,209.50
2023-01-11T16:58:30.553Z,207.02
2023-01-11T17:01:06.363Z,204.48
2023-01-11T17:03:43.229Z,207.15
2023-01-11T17:06:13.632Z,220.43
2023-01-11T17:08:43.193Z,205.50
2023-01-11T17:11:31.024Z,196.43
2023-01-11T17:14:16.606Z,194.15
2023-01-11T17:16:49.811Z,213.48
2023-01-11T17:19:20.323Z,200.80
2023-01-11T17:21:52.995Z,194.20
2023-01-11T17:24:26.344Z,203.05
2023-01-11T17:26:57.043Z,200.27
2023-01-11T17:29:27.454Z,195.30
2023-01-11T17:31:55.679Z,212.23
2023-01-11T17:34:28.465Z,201.73
2023-01-11T17:36:57.562Z,206.23
2023-01-11T17:39:36.865Z,200.25
2023-01-11T17:42:27.470Z,202.00
2023-01-11T17:45:13.511Z,197.38
2023-01-11T17:47:46.583Z,194.55
2023-01-11T17:50:22.112Z,197.32
2023-01-11T17:52:57.136Z,200.98
2023-01-11T17:55:27.194Z,196.80
2023-01-11T17:58:19.632Z,200.85
2023-01-11T18:01:16.042Z,185.68
2023-01-11T18:03:51.709Z,193.98
2023-01-11T18:06:21.598Z,195.95
2023-01-11T18:08:59.342Z,193.20
2023-01-11T18:11:28.175Z,207.05
2023-01-11T18:13:59.473Z,214.27
2023-01-11T18:16:26.652Z,216.75
2023-01-11T18:18:55.386Z,212.40
2023-01-11T18:21:40.520Z,224.65
2023-01-11T18:24:10.857Z,209.88
2023-01-11T18:26:40.415Z,216.18
2023-01-11T18:29:38.187Z,209.00
2023-01-11T18:32:08.302Z,197.93
2023-01-11T18:34:35.145Z,204.20
2023-01-11T18:37:06.516Z,205.55
2023-01-11T18:39:34.825Z,199.23
2023-01-11T18:42:09.532Z,197.10
2023-01-11T18:44:38.530Z,200.57
2023-01-11T18:47:17.613Z,194.57
2023-01-11T18:49:45.071Z,189.68
2023-01-11T18:52:12.602Z,197.35
2023-01-11T18:54:40.267Z,194.60
2023-01-11T18:57:07.296Z,200.15
2023-01-11T18:59:34.342Z,188.45
2023-01-11T19:02:17.792Z,195.20
2023-01-11T19:04:45.406Z,189.00
2023-01-11T19:07:13.585Z,207.55
2023-01-11T19:09:40.684Z,212.27
2023-01-11T19:12:08.096Z,216.05
2023-01-11T19:14:35.029Z,204.57
2023-01-11T19:17:02.823Z,192.93
2023-01-11T19:19:29.671Z,198.88
2023-01-11T19:21:56.530Z,201.30
2023-01-11T19:24:23.374Z,190.70
2023-01-11T19:26:50.516Z,193.77
2023-01-11T19:29:19.286Z,198.43
2023-01-11T19:31:46.966Z,200.50
2023-01-11T19:34:14.383Z,191.25
2023-01-11T19:36:41.284Z,194.60
2023-01-11T19:39:08.730Z,189.23
2023-01-11T19:41:54.810Z,210.98
2023-01-11T19:44:22.858Z,192.15
2023-01-11T19:46:56.761Z,196.23
2023-01-11T19:49:31.588Z,234.48
2023-01-11T19:52:00.353Z,194.95
2023-01-11T19:54:28.626Z,188.02
2023-01-11T19:56:55.705Z,191.13
2023-01-11T19:59:22.674Z,199.13
2023-01-11T20:01:49.638Z,195.52
2023-01-11T20:04:16.588Z,193.98
2023-01-11T20:06:50.745Z,196.18
2023-01-11T20:09:18.798Z,189.98
2023-01-11T20:11:46.639Z,194.07
2023-01-11T20:14:13.520Z,188.18
2023-01-11T20:16:40.361Z,192.38
2023-01-11T20:19:07.433Z,185.07
2023-01-11T20:21:35.372Z,192.93
2023-01-11T20:24:03.081Z,183.13
2023-01-11T20:26:31.535Z,188.07
2023-01-11T20:28:58.888Z,183.27
2023-01-11T20:31:28.498Z,181.82
2023-01-11T20:33:56.271Z,188.95
2023-01-11T20:36:24.733Z,197.45
2023-01-11T20:38:53.009Z,196.40
2023-01-11T20:41:41.366Z,199.23
2023-01-11T20:44:09.108Z,199.40
2023-01-11T20:46:37.583Z,200.85
2023-01-11T20:49:05.660Z,194.55
2023-01-11T20:51:32.569Z,206.80
2023-01-11T20:53:59.692Z,190.52
2023-01-11T20:56:26.815Z,197.43
2023-01-11T20:58:53.804Z,187.70
2023-01-11T21:01:26.119Z,198.60
2023-01-11T21:04:19.627Z,202.02
2023-01-11T21:06:50.995Z,191.38
2023-01-11T21:09:18.813Z,203.23
2023-01-11T21:11:54.163Z,191.13
2023-01-11T21:14:22.561Z,191.57
2023-01-11T21:16:49.508Z,190.27
2023-01-11T21:19:16.475Z,182.73
2023-01-11T21:21:43.826Z,188.00
2023-01-11T21:24:13.766Z,177.90
2023-01-11T21:26:42.549Z,200.45
2023-01-11T21:29:10.785Z,190.07
2023-01-11T21:31:40.668Z,183.15
2023-01-11T21:34:08.337Z,191.05
2023-01-11T21:36:35.461Z,202.45
2023-01-11T21:39:02.827Z,191.02
2023-01-11T21:41:50.407Z,187.38
2023-01-11T21:44:18.911Z,186.27
2023-01-11T21:46:46.182Z,190.98
2023-01-11T21:49:14.025Z,189.68
2023-01-11T21:51:41.899Z,188.63
2023-01-11T21:54:11.313Z,174.27
2023-01-11T21:56:38.894Z,210.55
2023-01-11T21:59:05.767Z,197.80
2023-01-11T22:01:32.656Z,197.52
2023-01-11T22:03:59.816Z,199.73
2023-01-11T22:06:26.716Z,199.43
2023-01-11T22:08:53.748Z,197.15
2023-01-11T22:11:22.733Z,193.25
2023-01-11T22:13:49.611Z,193.00
2023-01-11T22:16:18.387Z,192.15
2023-01-11T22:18:45.903Z,183.35
2023-01-11T22:21:18.381Z,191.95
2023-01-11T22:23:47.131Z,185.38
2023-01-11T22:26:17.078Z,211.32
2023-01-11T22:29:03.590Z,227.00
2023-01-11T22:31:31.516Z,209.85
2023-01-11T22:33:59.233Z,199.10
2023-01-11T22:36:27.551Z,214.95
2023-01-11T22:38:56.125Z,192.45
2023-01-11T22:41:24.227Z,187.05
2023-01-11T22:43:51.888Z,187.30
2023-01-11T22:46:21.204Z,190.23
2023-01-11T22:48:48.946Z,180.18
2023-01-11T22:51:17.851Z,181.98
2023-01-11T22:53:48.086Z,197.35
2023-01-11T22:56:18.828Z,200.48
2023-01-11T22:58:47.291Z,180.50
2023-01-11T23:01:15.667Z,195.32
2023-01-11T23:03:42.956Z,190.60
2023-01-11T23:06:10.343Z,191.75
2023-01-11T23:08:41.037Z,189.45
2023-01-11T23:11:09.506Z,198.20
2023-01-11T23:13:55.249Z,188.48
2023-01-11T23:16:23.012Z,190.50
2023-01-11T23:18:50.006Z,184.77
2023-01-11T23:21:17.348Z,189.25
2023-01-11T23:23:44.548Z,186.20
2023-01-11T23:26:18.049Z,179.65
2023-01-11T23:28:48.285Z,184.68
2023-01-11T23:31:18.173Z,193.80
2023-01-11T23:33:46.489Z,185.75
2023-01-11T23:36:14.046Z,183.00
2023-01-11T23:38:41.493Z,176.10
2023-01-11T23:41:40.450Z,177.07
2023-01-11T23:44:09.455Z,181.15
2023-01-11T23:46:55.895Z,183.85
2023-01-11T23:49:24.904Z,181.00
2023-01-11T23:51:52.281Z,185.40
2023-01-11T23:54:19.111Z,176.95
2023-01-11T23:56:45.961Z,179.90
2023-01-11T23:59:13.164Z,182.18
